Time;durP1;ratioP1;P1;durP2;ratioP2;P2;SDS_P1;SDS_P2;PMS_P1;PMS_P2;Temp;Humidity;BMP_temperature;BMP_pressure;BME280_temperature;BME280_humidity;BME280_pressure;Samples;Min_cycle;Max_cycle;Signal;HPM_P1;HPM_P2
2023/08/20 04:06:19;;;;;;;6.70;5.90;;;20.30;99.90;;;;;;5286487;23;20513;-63
2023/08/20 04:08:45;;;;;;;5.77;5.00;;;20.30;99.90;;;;;;4996948;28;20905;-64
2023/08/20 04:11:11;;;;;;;5.27;4.77;;;20.30;99.90;;;;;;4996958;28;20178;-63
2023/08/20 04:13:37;;;;;;;5.60;5.00;;;20.30;99.90;;;;;;4996704;28;20187;-63
2023/08/20 04:16:03;;;;;;;7.60;5.37;;;20.30;99.90;;;;;;4996670;28;20458;-63
2023/08/20 04:18:28;;;;;;;5.97;5.47;;;20.30;99.90;;;;;;4996953;28;20498;-64
2023/08/20 04:20:55;;;;;;;8.03;6.03;;;20.20;99.90;;;;;;4996799;28;20455;-62
2023/08/20 04:23:20;;;;;;;5.70;5.20;;;20.20;99.90;;;;;;4996784;28;20171;-63
2023/08/20 04:25:46;;;;;;;6.70;6.10;;;20.20;99.90;;;;;;4996219;28;20565;-63
2023/08/20 04:28:12;;;;;;;6.00;5.40;;;20.20;99.90;;;;;;4996667;28;20172;-63
2023/08/20 04:30:38;;;;;;;6.37;5.77;;;20.10;99.90;;;;;;4996543;28;20176;-62
2023/08/20 04:33:05;;;;;;;7.83;5.67;;;20.10;99.90;;;;;;4996445;28;20756;-63
2023/08/20 04:35:30;;;;;;;6.63;5.00;;;20.10;99.90;;;;;;4995012;28;20493;-62
2023/08/20 04:37:56;;;;;;;6.30;5.80;;;20.10;99.90;;;;;;4996375;28;20808;-63
2023/08/20 04:40:21;;;;;;;6.97;6.10;;;20.10;99.90;;;;;;4996262;28;20703;-63
2023/08/20 04:42:47;;;;;;;7.13;6.30;;;20.10;99.90;;;;;;4996364;28;20210;-63
2023/08/20 04:45:13;;;;;;;7.90;6.73;;;20.10;99.90;;;;;;4995550;28;20209;-63
2023/08/20 04:47:38;;;;;;;5.90;5.27;;;20.20;99.90;;;;;;4996135;28;20475;-63
2023/08/20 04:50:08;;;;;;;6.50;5.97;;;20.20;99.90;;;;;;4996122;28;20179;-66
2023/08/20 04:52:34;;;;;;;6.57;5.97;;;20.20;99.90;;;;;;4974901;28;20537;-63
2023/08/20 04:55:00;;;;;;;6.30;5.60;;;20.30;99.90;;;;;;4980745;28;20585;-63
2023/08/20 04:57:26;;;;;;;5.90;5.07;;;20.40;99.90;;;;;;4995807;28;20439;-63
2023/08/20 04:59:51;;;;;;;6.70;5.50;;;20.50;99.90;;;;;;4995842;28;20472;-63
2023/08/20 05:02:17;;;;;;;5.70;4.97;;;20.60;99.90;;;;;;4995832;28;20179;-63
2023/08/20 05:04:42;;;;;;;5.27;4.87;;;20.70;99.90;;;;;;4992631;28;20215;-63
2023/08/20 05:07:09;;;;;;;5.20;4.70;;;20.80;99.90;;;;;;4975956;28;20200;-63
2023/08/20 05:09:34;;;;;;;5.87;5.37;;;20.90;99.90;;;;;;4976520;28;20647;-63
2023/08/20 05:12:00;;;;;;;5.20;4.70;;;21.10;99.90;;;;;;4976554;28;20414;-64
2023/08/20 05:14:26;;;;;;;6.50;5.93;;;21.20;99.90;;;;;;4958566;28;20235;-62
2023/08/20 05:16:51;;;;;;;6.27;5.67;;;21.30;99.90;;;;;;4958943;28;20231;-62
2023/08/20 05:19:17;;;;;;;5.97;5.13;;;21.40;99.90;;;;;;4976220;28;20176;-63
2023/08/20 05:21:42;;;;;;;6.00;5.60;;;21.40;99.90;;;;;;4976119;28;20534;-64
2023/08/20 05:24:09;;;;;;;5.40;4.90;;;21.50;99.90;;;;;;4975758;28;20183;-64
2023/08/20 05:26:34;;;;;;;6.87;6.03;;;21.60;99.90;;;;;;4975929;28;20682;-62
2023/08/20 05:29:00;;;;;;;5.77;5.27;;;21.60;99.90;;;;;;4976122;28;20477;-62
2023/08/20 05:31:26;;;;;;;5.10;4.60;;;21.80;99.90;;;;;;4975810;28;20238;-63
2023/08/20 05:33:51;;;;;;;5.87;5.30;;;21.80;99.90;;;;;;4975572;28;20185;-62
2023/08/20 05:36:17;;;;;;;5.37;4.83;;;21.80;99.90;;;;;;4975788;28;20192;-62
2023/08/20 05:38:43;;;;;;;5.37;4.87;;;21.80;99.90;;;;;;4976132;28;20741;-63
2023/08/20 05:41:09;;;;;;;6.03;5.17;;;21.90;99.90;;;;;;4975834;28;20168;-62
2023/08/20 05:43:36;;;;;;;7.43;5.43;;;22.00;99.90;;;;;;4975724;28;20169;-63
2023/08/20 05:46:02;;;;;;;7.17;4.90;;;22.10;99.90;;;;;;4975610;28;20448;-63
2023/08/20 05:48:28;;;;;;;5.30;4.80;;;22.10;99.90;;;;;;4990976;28;20392;-63
2023/08/20 05:50:54;;;;;;;5.80;5.10;;;22.20;99.90;;;;;;4975960;28;20407;-62
2023/08/20 05:53:21;;;;;;;5.90;5.40;;;22.30;99.90;;;;;;4983221;28;20396;-62
2023/08/20 05:55:47;;;;;;;5.33;4.73;;;22.30;99.90;;;;;;4994511;28;20431;-63
2023/08/20 05:58:12;;;;;;;4.93;4.33;;;22.40;99.90;;;;;;4991831;28;20486;-62
2023/08/20 06:00:38;;;;;;;7.03;5.23;;;22.40;99.90;;;;;;4975484;28;20176;-63
2023/08/20 06:03:04;;;;;;;6.00;5.43;;;22.50;99.90;;;;;;4958277;28;20182;-62
2023/08/20 06:05:29;;;;;;;5.00;4.50;;;22.70;99.90;;;;;;4981999;28;20250;-63
2023/08/20 06:07:55;;;;;;;5.17;4.73;;;22.90;99.90;;;;;;4976699;28;20228;-63
2023/08/20 06:10:21;;;;;;;5.40;4.90;;;23.10;99.90;;;;;;4975507;28;20662;-63
2023/08/20 06:12:46;;;;;;;5.67;5.07;;;23.10;99.90;;;;;;4975244;28;20173;-63
2023/08/20 06:15:12;;;;;;;5.63;5.10;;;23.30;99.90;;;;;;4974975;28;20192;-63
2023/08/20 06:17:37;;;;;;;4.87;4.37;;;23.30;99.90;;;;;;4975073;28;20659;-63
2023/08/20 06:20:08;;;;;;;4.43;4.03;;;23.50;99.90;;;;;;4975157;28;20239;-62
2023/08/20 06:22:34;;;;;;;8.27;6.10;;;23.60;99.90;;;;;;4975346;28;20168;-63
2023/08/20 06:25:00;;;;;;;6.03;5.53;;;23.70;99.90;;;;;;4957276;28;20754;-64
2023/08/20 06:27:25;;;;;;;6.77;6.17;;;23.90;99.90;;;;;;4975091;28;20374;-63
2023/08/20 06:29:51;;;;;;;5.30;4.90;;;24.20;99.90;;;;;;4975002;28;20231;-62
2023/08/20 06:32:16;;;;;;;4.67;4.27;;;24.30;99.90;;;;;;4976003;28;20164;-62
2023/08/20 06:34:42;;;;;;;5.40;4.90;;;24.40;99.90;;;;;;4993867;28;20241;-64
2023/08/20 06:37:08;;;;;;;5.80;5.30;;;24.50;99.90;;;;;;4994266;28;20625;-63
2023/08/20 06:39:34;;;;;;;6.17;5.60;;;24.60;99.90;;;;;;4993585;28;20172;-62
2023/08/20 06:41:59;;;;;;;6.03;5.50;;;24.70;99.90;;;;;;4993982;28;20186;-65
2023/08/20 06:44:25;;;;;;;6.10;5.17;;;24.90;99.90;;;;;;4993403;28;20397;-61
2023/08/20 06:46:50;;;;;;;5.60;5.10;;;25.00;99.90;;;;;;4994261;28;20293;-61
2023/08/20 06:49:16;;;;;;;6.90;6.40;;;25.10;99.90;;;;;;4991608;28;20251;-63
2023/08/20 06:51:41;;;;;;;8.53;6.20;;;25.20;99.90;;;;;;4993594;28;20262;-61
2023/08/20 06:54:07;;;;;;;8.37;7.53;;;25.30;99.90;;;;;;4983628;28;20179;-62
2023/08/20 06:56:33;;;;;;;6.60;6.00;;;25.40;99.90;;;;;;4974557;28;20220;-63
2023/08/20 06:59:00;;;;;;;6.90;6.13;;;25.40;99.90;;;;;;4983877;28;20258;-64
2023/08/20 07:01:25;;;;;;;6.40;5.80;;;25.40;99.90;;;;;;4993698;28;20184;-63
2023/08/20 07:03:51;;;;;;;6.50;5.90;;;25.40;99.90;;;;;;4993409;28;20461;-61
2023/08/20 07:06:18;;;;;;;7.87;6.47;;;25.40;99.90;;;;;;4993646;28;20653;-63
2023/08/20 07:08:44;;;;;;;6.27;5.70;;;25.50;99.90;;;;;;4993911;28;20677;-64
2023/08/20 07:11:10;;;;;;;6.73;6.10;;;25.60;99.90;;;;;;4986813;28;20435;-64
2023/08/20 07:13:36;;;;;;;7.70;7.00;;;25.80;99.90;;;;;;4993388;28;20386;-63
2023/08/20 07:16:02;;;;;;;7.23;5.93;;;25.80;99.90;;;;;;4993531;28;20208;-64
2023/08/20 07:18:28;;;;;;;6.80;6.10;;;26.00;99.90;;;;;;4996631;28;20930;-63
2023/08/20 07:20:54;;;;;;;6.00;5.37;;;26.10;99.90;;;;;;4997792;28;20387;-63
2023/08/20 07:23:20;;;;;;;8.03;5.83;;;26.30;99.90;;;;;;4997467;28;20400;-63
2023/08/20 07:25:46;;;;;;;7.27;6.20;;;26.70;99.90;;;;;;4996990;28;20982;-64
2023/08/20 07:28:12;;;;;;;9.17;7.07;;;27.00;99.90;;;;;;4995334;28;20264;-65
2023/08/20 07:30:38;;;;;;;6.60;6.00;;;27.50;99.90;;;;;;4997015;28;20408;-65
2023/08/20 07:33:05;;;;;;;7.83;7.13;;;27.90;99.90;;;;;;4994270;28;20626;-63
2023/08/20 07:35:31;;;;;;;9.30;8.27;;;28.30;99.90;;;;;;4978104;28;20776;-64
2023/08/20 07:37:57;;;;;;;7.23;6.60;;;28.90;99.90;;;;;;4992887;28;20493;-64
2023/08/20 07:40:22;;;;;;;11.70;7.07;;;29.50;99.90;;;;;;4999292;28;20249;-63
2023/08/20 07:42:50;;;;;;;11.23;7.13;;;30.10;99.90;;;;;;5000447;28;20194;-65
2023/08/20 07:45:16;;;;;;;6.67;6.10;;;31.00;99.90;;;;;;4996969;28;20253;-65
2023/08/20 07:47:41;;;;;;;7.30;6.57;;;31.90;99.90;;;;;;4997109;28;20461;-64
2023/08/20 07:50:07;;;;;;;6.83;6.33;;;32.90;99.90;;;;;;4996980;28;20693;-64
2023/08/20 07:52:33;;;;;;;6.63;5.83;;;33.90;99.80;;;;;;4997161;28;20299;-65
2023/08/20 07:54:58;;;;;;;6.30;5.70;;;34.90;97.90;;;;;;4996031;28;20200;-65
2023/08/20 07:57:24;;;;;;;6.93;6.43;;;35.90;96.40;;;;;;4996767;28;20175;-64
2023/08/20 07:59:50;;;;;;;6.93;6.33;;;36.50;94.60;;;;;;4997009;28;20174;-66
2023/08/20 08:02:16;;;;;;;6.60;6.10;;;36.70;93.40;;;;;;4996848;28;20175;-65
2023/08/20 08:04:42;;;;;;;6.90;6.20;;;36.60;92.90;;;;;;4996621;28;20784;-67
2023/08/20 08:07:09;;;;;;;6.67;6.10;;;36.10;93.00;;;;;;4996449;28;20202;-65
2023/08/20 08:09:35;;;;;;;7.20;6.57;;;35.20;94.00;;;;;;4996915;28;20414;-67
2023/08/20 08:12:01;;;;;;;7.23;6.73;;;34.80;94.60;;;;;;4997015;28;20407;-65
2023/08/20 08:14:27;;;;;;;7.20;6.60;;;34.90;94.80;;;;;;4996706;28;20175;-66
2023/08/20 08:16:53;;;;;;;7.23;6.63;;;35.30;94.10;;;;;;4996765;28;20415;-67
2023/08/20 08:19:19;;;;;;;6.17;5.77;;;35.60;93.60;;;;;;4996558;28;20423;-67
2023/08/20 08:21:45;;;;;;;7.10;6.50;;;36.10;93.20;;;;;;4996741;28;20179;-65
2023/08/20 08:24:12;;;;;;;6.60;6.03;;;36.50;91.80;;;;;;4996567;28;20912;-64
2023/08/20 08:26:37;;;;;;;6.80;6.30;;;36.60;91.30;;;;;;4996728;28;20465;-66
2023/08/20 08:29:04;;;;;;;7.90;7.30;;;37.00;91.40;;;;;;4995942;28;20399;-65
2023/08/20 08:31:30;;;;;;;7.00;6.40;;;37.40;89.90;;;;;;4978937;28;20188;-65
2023/08/20 08:33:56;;;;;;;7.40;6.90;;;37.50;89.80;;;;;;4995855;28;20530;-65
2023/08/20 08:36:21;;;;;;;7.43;6.87;;;37.50;89.90;;;;;;4978814;28;20250;-65
2023/08/20 08:38:47;;;;;;;6.60;6.07;;;37.70;90.50;;;;;;4978931;28;20182;-66
2023/08/20 08:41:14;;;;;;;6.17;5.77;;;38.30;89.30;;;;;;4996408;28;20203;-69
2023/08/20 08:43:40;;;;;;;7.77;7.10;;;38.90;87.60;;;;;;4996079;28;20187;-68
2023/08/20 08:46:08;;;;;;;6.20;5.80;;;39.60;86.40;;;;;;4995688;28;20454;-66
2023/08/20 08:48:35;;;;;;;6.80;6.30;;;39.80;84.10;;;;;;4996208;28;20505;-66
2023/08/20 08:51:01;;;;;;;6.20;5.80;;;40.00;83.80;;;;;;4978654;28;20909;-66
2023/08/20 08:53:28;;;;;;;6.97;6.47;;;40.20;82.70;;;;;;4995996;28;20402;-71
2023/08/20 08:55:53;;;;;;;6.63;6.17;;;40.60;80.70;;;;;;4995876;28;20770;-67
2023/08/20 08:58:19;;;;;;;6.47;6.03;;;40.70;79.40;;;;;;4995918;28;20423;-69
2023/08/20 09:00:44;;;;;;;5.80;5.40;;;40.60;79.40;;;;;;4978151;28;20270;-68
2023/08/20 09:03:10;;;;;;;7.23;6.73;;;40.80;80.70;;;;;;4996013;28;20180;-66
2023/08/20 09:05:49;;;;;;;6.70;6.00;;;41.10;79.80;;;;;;4987445;28;20586;-67
2023/08/20 09:08:22;;;;;;;7.00;6.47;;;41.50;77.60;;;;;;4994940;28;20254;-67
2023/08/20 09:10:51;;;;;;;6.10;5.70;;;41.50;77.20;;;;;;4995672;28;20425;-62
2023/08/20 09:13:17;;;;;;;6.20;5.80;;;41.50;76.40;;;;;;4995295;28;20927;-60
2023/08/20 09:15:42;;;;;;;7.33;6.93;;;41.60;75.80;;;;;;4995003;28;20443;-63
2023/08/20 09:18:11;;;;;;;7.10;6.60;;;41.40;76.40;;;;;;4995690;28;20175;-62
2023/08/20 09:20:37;;;;;;;7.50;7.00;;;41.00;76.80;;;;;;4995581;28;20173;-61
2023/08/20 09:23:04;;;;;;;6.63;6.13;;;40.80;77.20;;;;;;4995134;28;20435;-61
2023/08/20 09:25:29;;;;;;;8.37;6.50;;;40.90;76.10;;;;;;4994885;28;20534;-64
2023/08/20 09:27:55;;;;;;;6.50;6.10;;;41.20;75.20;;;;;;4994957;28;20893;-61
2023/08/20 09:30:21;;;;;;;5.80;5.40;;;41.60;73.90;;;;;;4994560;28;20229;-62
2023/08/20 09:33:07;;;;;;;6.40;6.00;;;42.30;72.80;;;;;;4995185;28;20266;-61
2023/08/20 09:35:33;;;;;;;6.40;6.00;;;42.70;70.70;;;;;;4994288;28;20202;-61
2023/08/20 09:38:08;;;;;;;6.10;5.80;;;42.60;70.40;;;;;;4995334;28;20912;-63
2023/08/20 09:40:34;;;;;;;7.10;6.60;;;42.50;71.20;;;;;;4978002;28;20265;-61
2023/08/20 09:43:01;;;;;;;6.73;6.33;;;42.60;71.80;;;;;;4995437;28;20501;-61
2023/08/20 09:45:29;;;;;;;6.70;6.30;;;42.60;69.20;;;;;;4994347;28;20202;-62
2023/08/20 09:47:56;;;;;;;6.70;6.30;;;42.40;69.20;;;;;;4977848;28;20916;-62
2023/08/20 09:50:23;;;;;;;6.10;5.70;;;42.50;69.60;;;;;;4995185;28;20454;-62
2023/08/20 09:52:58;;;;;;;6.87;6.27;;;42.00;69.80;;;;;;4995251;28;20425;-61
2023/08/20 09:55:34;;;;;;;6.57;6.10;;;41.70;69.80;;;;;;4977185;28;20472;-62
2023/08/20 09:58:01;;;;;;;7.13;6.50;;;41.60;70.40;;;;;;4995263;28;20480;-62
2023/08/20 10:00:28;;;;;;;8.03;7.43;;;41.30;71.20;;;;;;4994609;28;20955;-62
2023/08/20 10:02:54;;;;;;;5.70;5.30;;;41.30;70.30;;;;;;4994915;28;20510;-63
2023/08/20 10:05:21;;;;;;;7.30;6.80;;;41.60;69.40;;;;;;4994224;28;20505;-62
2023/08/20 10:07:47;;;;;;;6.13;5.73;;;42.00;68.10;;;;;;4994351;28;20426;-61
2023/08/20 10:10:13;;;;;;;6.40;6.00;;;42.40;67.00;;;;;;4979438;28;20426;-61
2023/08/20 10:12:40;;;;;;;6.13;5.77;;;42.50;66.00;;;;;;4977197;28;20476;-61
2023/08/20 10:15:10;;;;;;;5.90;5.50;;;42.20;66.00;;;;;;4976639;28;20199;-61
2023/08/20 10:17:38;;;;;;;6.30;5.90;;;41.60;66.70;;;;;;4988836;28;20781;-61
2023/08/20 10:20:06;;;;;;;6.17;5.67;;;41.30;67.00;;;;;;4994493;28;20467;-61
2023/08/20 10:22:40;;;;;;;7.20;6.70;;;41.10;67.90;;;;;;4977163;28;20936;-62
2023/08/20 10:25:21;;;;;;;6.17;5.77;;;41.00;68.00;;;;;;4994138;28;20434;-61
2023/08/20 10:27:47;;;;;;;5.93;5.60;;;40.90;67.60;;;;;;4977199;28;20439;-64
2023/08/20 10:30:26;;;;;;;6.07;5.57;;;40.60;67.90;;;;;;4994128;28;20457;-63
2023/08/20 10:32:53;;;;;;;6.20;5.80;;;40.60;67.90;;;;;;4994435;28;20630;-64
2023/08/20 10:35:23;;;;;;;5.80;5.43;;;40.30;67.80;;;;;;4993689;28;20525;-63
2023/08/20 10:38:11;;;;;;;5.23;4.93;;;40.30;68.60;;;;;;4993830;28;20466;-65
2023/08/20 10:40:47;;;;;;;6.23;5.70;;;40.10;66.60;;;;;;4993663;28;20956;-64
2023/08/20 10:43:40;;;;;;;6.23;5.73;;;39.80;69.90;;;;;;4994244;28;20785;-66
2023/08/20 10:46:21;;;;;;;5.50;5.20;;;39.80;71.00;;;;;;4994276;28;20454;-60
2023/08/20 10:48:49;;;;;;;5.73;5.30;;;39.80;69.60;;;;;;4994196;28;20414;-60
2023/08/20 10:51:32;;;;;;;5.50;5.10;;;39.60;69.50;;;;;;4994167;28;20447;-64
2023/08/20 10:54:00;;;;;;;5.20;4.80;;;39.40;70.30;;;;;;4993103;28;20415;-65
2023/08/20 10:56:48;;;;;;;5.13;4.83;;;39.00;70.20;;;;;;4993926;28;20442;-66
2023/08/20 10:59:23;;;;;;;5.30;4.90;;;39.00;70.80;;;;;;4976821;28;20808;-66
2023/08/20 11:01:52;;;;;;;5.40;5.00;;;39.20;69.50;;;;;;4994172;28;20912;-63
2023/08/20 11:04:26;;;;;;;5.27;4.77;;;39.10;70.70;;;;;;4993392;28;20390;-61
2023/08/20 11:06:55;;;;;;;5.43;5.07;;;39.00;69.90;;;;;;4993451;28;20462;-62
2023/08/20 11:09:29;;;;;;;6.37;5.97;;;38.90;70.30;;;;;;4994055;28;20542;-61
2023/08/20 11:11:55;;;;;;;5.60;5.10;;;38.70;72.50;;;;;;4976399;28;20928;-62
2023/08/20 11:14:22;;;;;;;6.47;5.83;;;38.40;74.80;;;;;;4992547;28;20419;-63
2023/08/20 11:16:48;;;;;;;6.40;5.80;;;37.90;76.20;;;;;;4993628;28;20416;-61
2023/08/20 11:19:18;;;;;;;9.17;6.27;;;37.30;77.50;;;;;;4993634;28;20411;-63
2023/08/20 11:21:45;;;;;;;5.40;5.00;;;36.60;77.50;;;;;;4993983;28;20390;-63
2023/08/20 11:24:11;;;;;;;5.73;5.33;;;35.80;78.00;;;;;;4993404;28;20408;-65
2023/08/20 11:26:40;;;;;;;5.43;5.03;;;35.30;79.60;;;;;;4993462;28;20437;-60
2023/08/20 11:29:06;;;;;;;6.13;5.57;;;34.90;80.40;;;;;;4993620;28;20437;-60
2023/08/20 11:31:32;;;;;;;6.50;5.90;;;34.50;83.70;;;;;;4993418;28;20450;-60
2023/08/20 11:33:58;;;;;;;6.13;5.57;;;34.50;84.40;;;;;;4993280;28;20498;-60
2023/08/20 11:36:23;;;;;;;6.33;5.83;;;34.20;85.20;;;;;;4993906;28;20202;-60
2023/08/20 11:38:53;;;;;;;6.20;5.70;;;34.00;83.40;;;;;;4993353;28;20171;-65
2023/08/20 11:41:22;;;;;;;6.53;5.93;;;33.70;83.40;;;;;;4993911;28;20172;-62
2023/08/20 11:43:48;;;;;;;5.87;5.37;;;33.50;84.40;;;;;;4993304;28;20521;-62
2023/08/20 11:46:19;;;;;;;5.97;5.47;;;33.20;86.60;;;;;;4993674;28;20454;-62
2023/08/20 11:49:06;;;;;;;6.07;5.57;;;33.00;86.10;;;;;;4993584;28;20949;-62
2023/08/20 11:51:42;;;;;;;6.10;5.60;;;32.90;86.50;;;;;;4992997;28;20840;-62
2023/08/20 11:54:09;;;;;;;5.70;5.20;;;32.90;86.10;;;;;;4992850;28;20446;-61
2023/08/20 11:56:35;;;;;;;8.40;5.53;;;32.70;86.40;;;;;;4993021;28;20425;-60
2023/08/20 11:59:02;;;;;;;5.57;5.17;;;32.60;87.90;;;;;;4975847;28;20868;-61
2023/08/20 12:01:31;;;;;;;5.63;5.20;;;32.60;89.30;;;;;;4993138;28;20259;-62
2023/08/20 12:04:03;;;;;;;5.40;5.00;;;32.50;87.60;;;;;;4992920;28;20420;-59
2023/08/20 12:06:30;;;;;;;5.60;5.10;;;32.50;86.50;;;;;;4996578;28;20470;-60
2023/08/20 12:08:59;;;;;;;5.20;4.80;;;32.50;86.20;;;;;;4997018;28;20421;-59
2023/08/20 12:11:26;;;;;;;5.90;5.40;;;32.50;84.90;;;;;;4996879;28;20409;-59
2023/08/20 12:13:52;;;;;;;5.40;4.90;;;32.60;85.60;;;;;;4995965;28;20401;-59
2023/08/20 12:16:18;;;;;;;4.70;4.30;;;32.70;87.00;;;;;;4996519;28;20975;-60
2023/08/20 12:18:46;;;;;;;5.13;4.73;;;32.60;84.40;;;;;;4996693;28;20163;-62
2023/08/20 12:21:12;;;;;;;5.20;4.80;;;32.70;84.80;;;;;;4996773;28;20381;-60
2023/08/20 12:23:37;;;;;;;5.17;4.77;;;32.70;86.00;;;;;;4996474;28;20381;-63
2023/08/20 12:26:03;;;;;;;6.20;5.37;;;32.80;86.00;;;;;;4996325;28;20203;-62
2023/08/20 12:28:29;;;;;;;6.73;6.23;;;32.80;84.50;;;;;;4996683;28;20207;-61
2023/08/20 12:30:54;;;;;;;5.70;5.27;;;32.80;84.10;;;;;;4996181;28;20432;-65
2023/08/20 12:33:20;;;;;;;5.43;4.93;;;32.80;83.80;;;;;;4996590;28;20175;-66
2023/08/20 12:35:46;;;;;;;5.57;5.07;;;32.80;86.20;;;;;;4996147;28;20199;-60
2023/08/20 12:38:12;;;;;;;5.33;4.90;;;32.70;85.60;;;;;;4995943;28;20183;-61
2023/08/20 12:40:38;;;;;;;4.47;4.13;;;32.70;87.20;;;;;;4996243;28;20807;-62
2023/08/20 12:43:03;;;;;;;5.10;4.67;;;32.70;82.20;;;;;;4996270;28;20587;-64
2023/08/20 12:45:29;;;;;;;6.53;4.80;;;32.70;82.10;;;;;;4995673;28;20743;-61
2023/08/20 12:47:55;;;;;;;4.77;4.37;;;32.60;83.90;;;;;;4996134;28;20496;-63
2023/08/20 12:50:21;;;;;;;4.97;4.53;;;32.60;84.30;;;;;;4996201;28;20403;-60
2023/08/20 12:52:49;;;;;;;5.37;4.90;;;32.70;85.10;;;;;;4996159;28;20171;-61
2023/08/20 12:55:14;;;;;;;4.60;4.20;;;32.70;82.80;;;;;;4995610;28;20196;-61
2023/08/20 12:57:53;;;;;;;5.27;4.77;;;32.70;83.70;;;;;;4996282;28;20494;-61
2023/08/20 13:00:19;;;;;;;4.27;3.97;;;32.70;82.90;;;;;;4995814;28;20175;-60
2023/08/20 13:02:45;;;;;;;5.03;4.63;;;32.80;83.00;;;;;;4996256;28;20410;-62
2023/08/20 13:05:11;;;;;;;5.63;4.40;;;32.80;84.00;;;;;;4978040;28;20246;-60
2023/08/20 13:07:37;;;;;;;4.63;4.33;;;32.80;86.30;;;;;;4995806;28;20188;-60
2023/08/20 13:10:03;;;;;;;5.63;4.83;;;32.80;86.20;;;;;;4995426;28;20430;-62
2023/08/20 13:12:31;;;;;;;5.30;4.80;;;32.80;86.50;;;;;;4995322;28;20203;-61
2023/08/20 13:14:57;;;;;;;5.20;4.70;;;32.90;86.40;;;;;;4994737;28;20427;-61
2023/08/20 13:17:24;;;;;;;5.23;4.80;;;33.00;86.30;;;;;;4995784;28;20825;-61
2023/08/20 13:19:49;;;;;;;5.00;4.57;;;33.00;83.00;;;;;;4995641;28;20194;-62
2023/08/20 13:22:15;;;;;;;5.00;4.60;;;33.00;82.70;;;;;;4986787;28;20770;-62
2023/08/20 13:24:41;;;;;;;4.77;4.37;;;32.90;83.90;;;;;;4967003;28;20207;-62
2023/08/20 13:27:06;;;;;;;4.60;4.23;;;32.90;82.70;;;;;;4989199;28;20198;-62
2023/08/20 13:29:32;;;;;;;8.23;4.87;;;32.80;83.10;;;;;;4995081;28;20179;-66
2023/08/20 13:31:58;;;;;;;4.40;4.10;;;32.70;82.50;;;;;;4994919;28;20263;-61
2023/08/20 13:34:23;;;;;;;5.63;5.13;;;32.70;82.80;;;;;;4994910;28;20190;-63
2023/08/20 13:36:49;;;;;;;4.53;4.10;;;32.70;82.20;;;;;;4995357;28;20171;-63
2023/08/20 13:39:14;;;;;;;4.87;4.50;;;32.70;82.80;;;;;;4995278;28;20672;-60
2023/08/20 13:41:41;;;;;;;5.27;4.80;;;32.60;83.10;;;;;;4995013;28;20182;-62
2023/08/20 13:44:08;;;;;;;4.17;3.73;;;32.60;83.30;;;;;;4995087;28;20180;-62
2023/08/20 13:46:34;;;;;;;4.00;3.60;;;32.60;83.90;;;;;;4995066;28;20995;-63
2023/08/20 13:48:59;;;;;;;6.03;4.33;;;32.60;83.80;;;;;;4995289;28;20392;-62
2023/08/20 13:51:25;;;;;;;4.50;4.13;;;32.70;84.80;;;;;;4994892;28;20250;-60
2023/08/20 13:53:51;;;;;;;4.60;4.10;;;32.70;83.90;;;;;;4994199;28;20302;-63
2023/08/20 13:56:16;;;;;;;4.63;4.23;;;32.70;84.70;;;;;;4986838;28;20188;-60
2023/08/20 13:58:42;;;;;;;4.67;4.37;;;32.70;84.80;;;;;;4977320;28;20172;-60
2023/08/20 14:01:08;;;;;;;4.33;4.03;;;32.80;83.60;;;;;;4994510;28;20176;-62
2023/08/20 14:03:33;;;;;;;5.00;4.57;;;32.80;84.10;;;;;;4994813;28;20175;-62
2023/08/20 14:05:59;;;;;;;4.30;3.90;;;32.80;83.50;;;;;;4994247;28;20211;-59
2023/08/20 14:08:24;;;;;;;4.57;4.17;;;32.80;83.20;;;;;;4994995;28;20661;-62
2023/08/20 14:10:50;;;;;;;4.77;4.30;;;32.70;83.10;;;;;;4994844;28;20230;-62
2023/08/20 14:13:15;;;;;;;5.30;4.80;;;32.70;83.90;;;;;;4994798;28;20178;-61
2023/08/20 14:15:41;;;;;;;4.30;4.00;;;32.60;83.80;;;;;;4994086;28;20195;-62
2023/08/20 14:18:07;;;;;;;4.63;4.23;;;32.60;83.90;;;;;;4994749;28;20172;-61
2023/08/20 14:20:32;;;;;;;4.83;4.43;;;32.60;83.70;;;;;;4994134;28;20590;-63
2023/08/20 14:22:58;;;;;;;5.43;4.93;;;32.60;86.50;;;;;;4994396;28;20190;-63
2023/08/20 14:25:23;;;;;;;4.77;4.30;;;32.60;85.00;;;;;;4993699;28;20188;-63
2023/08/20 14:27:49;;;;;;;4.97;4.57;;;32.60;85.40;;;;;;4993941;28;20865;-62
2023/08/20 14:30:15;;;;;;;5.57;5.07;;;32.60;85.80;;;;;;4994308;28;20175;-63
2023/08/20 14:32:41;;;;;;;5.47;5.07;;;32.60;86.60;;;;;;4993141;28;20171;-61
2023/08/20 14:35:08;;;;;;;5.17;4.67;;;32.60;88.70;;;;;;4992245;28;20196;-63
2023/08/20 14:37:33;;;;;;;5.23;4.83;;;32.60;87.40;;;;;;4974898;28;20929;-63
2023/08/20 14:39:59;;;;;;;5.83;5.33;;;32.60;87.60;;;;;;4992175;28;20385;-62
2023/08/20 14:42:24;;;;;;;5.50;5.00;;;32.50;88.30;;;;;;4992476;28;20180;-62
2023/08/20 14:44:50;;;;;;;5.43;4.67;;;32.50;88.70;;;;;;4992017;28;20231;-64
2023/08/20 14:47:16;;;;;;;6.80;5.60;;;32.50;89.10;;;;;;4991765;28;20226;-61
2023/08/20 14:49:41;;;;;;;5.27;4.80;;;32.40;89.10;;;;;;4993174;28;20194;-63
2023/08/20 14:52:07;;;;;;;5.93;5.40;;;32.40;89.90;;;;;;4994304;28;20226;-61
2023/08/20 14:54:32;;;;;;;4.70;4.30;;;32.30;90.30;;;;;;4993166;28;20180;-62
2023/08/20 14:56:58;;;;;;;5.77;5.27;;;32.30;90.50;;;;;;4994427;28;20222;-62
2023/08/20 14:59:24;;;;;;;5.50;5.10;;;32.30;90.90;;;;;;4994031;28;20163;-63
2023/08/20 15:01:49;;;;;;;6.37;5.40;;;32.20;90.90;;;;;;4994164;28;20179;-62
2023/08/20 15:04:15;;;;;;;5.13;4.73;;;32.30;90.50;;;;;;4993676;28;20179;-64
2023/08/20 15:06:40;;;;;;;4.77;4.37;;;32.20;90.30;;;;;;4976134;28;20226;-63
2023/08/20 15:09:09;;;;;;;5.00;4.23;;;32.20;90.20;;;;;;4994076;28;20177;-62
2023/08/20 15:11:35;;;;;;;4.80;4.40;;;32.00;89.80;;;;;;4994051;28;20665;-63
2023/08/20 15:14:00;;;;;;;5.27;4.87;;;32.00;89.60;;;;;;4993368;28;20403;-64
2023/08/20 15:16:26;;;;;;;4.93;4.53;;;32.00;90.10;;;;;;4993478;28;20214;-62
2023/08/20 15:18:52;;;;;;;4.87;4.40;;;32.00;90.40;;;;;;4993896;28;20306;-62
2023/08/20 15:21:17;;;;;;;4.77;4.37;;;32.00;90.20;;;;;;4993771;28;20266;-61
2023/08/20 15:23:43;;;;;;;5.30;4.50;;;31.90;90.30;;;;;;4993328;28;20182;-62
2023/08/20 15:26:09;;;;;;;6.23;5.63;;;31.80;90.90;;;;;;4993827;28;20282;-62
2023/08/20 15:28:34;;;;;;;5.20;4.70;;;31.80;91.00;;;;;;4993698;28;20646;-63
2023/08/20 15:31:01;;;;;;;5.00;4.60;;;31.80;90.90;;;;;;4993777;28;20298;-64
2023/08/20 15:33:27;;;;;;;5.80;5.30;;;31.70;91.10;;;;;;4994024;28;20714;-63
2023/08/20 15:35:52;;;;;;;5.60;5.10;;;31.70;90.60;;;;;;4993562;28;20497;-63
2023/08/20 15:38:18;;;;;;;5.47;4.97;;;31.80;90.60;;;;;;4977245;28;20649;-61
2023/08/20 15:40:44;;;;;;;5.40;4.90;;;31.90;90.10;;;;;;4997283;28;20661;-63
2023/08/20 15:43:09;;;;;;;4.70;4.30;;;31.90;89.60;;;;;;4997635;28;20192;-62
2023/08/20 15:45:35;;;;;;;4.87;4.47;;;32.00;90.10;;;;;;4996936;28;20211;-61
2023/08/20 15:48:00;;;;;;;8.70;4.60;;;32.00;89.10;;;;;;4997247;28;20186;-62
2023/08/20 15:50:28;;;;;;;3.97;3.53;;;32.00;90.00;;;;;;4997633;28;20175;-62
2023/08/20 15:52:54;;;;;;;5.30;4.90;;;32.00;88.10;;;;;;4997239;28;20203;-63
2023/08/20 15:55:19;;;;;;;4.80;3.97;;;31.90;87.90;;;;;;4996674;28;20965;-63
2023/08/20 15:57:45;;;;;;;4.93;4.53;;;31.90;87.90;;;;;;4997272;28;20406;-63
2023/08/20 16:00:18;;;;;;;4.93;4.50;;;31.90;87.70;;;;;;4997558;28;20170;-63
2023/08/20 16:02:45;;;;;;;4.03;3.73;;;31.90;88.10;;;;;;4997110;28;20222;-62
2023/08/20 16:05:11;;;;;;;4.60;4.20;;;31.90;87.70;;;;;;4996446;28;20918;-62
2023/08/20 16:07:37;;;;;;;4.30;3.93;;;31.80;86.10;;;;;;4996707;28;20492;-62
2023/08/20 16:10:04;;;;;;;4.57;4.07;;;31.80;86.30;;;;;;4996746;28;20756;-62
2023/08/20 16:12:30;;;;;;;4.20;3.77;;;31.80;86.40;;;;;;4996822;28;20411;-61
2023/08/20 16:14:56;;;;;;;3.57;3.27;;;31.70;86.30;;;;;;4996476;28;20433;-62
2023/08/20 16:17:21;;;;;;;6.90;4.20;;;31.70;85.40;;;;;;4997046;28;20182;-62
2023/08/20 16:19:47;;;;;;;3.80;3.57;;;31.60;85.20;;;;;;4996989;28;20755;-62
2023/08/20 16:22:13;;;;;;;4.30;4.00;;;31.60;85.40;;;;;;4996843;28;20700;-63
2023/08/20 16:24:38;;;;;;;4.43;4.07;;;31.60;85.10;;;;;;4996291;28;20235;-61
2023/08/20 16:27:04;;;;;;;4.70;4.17;;;31.60;86.40;;;;;;4996424;28;20232;-61
2023/08/20 16:29:30;;;;;;;4.10;3.77;;;31.50;86.30;;;;;;4996841;28;20187;-62
2023/08/20 16:31:55;;;;;;;6.83;6.10;;;31.50;85.40;;;;;;4996903;28;20725;-63
2023/08/20 16:34:22;;;;;;;4.50;4.20;;;31.40;86.00;;;;;;4996109;28;20175;-61
2023/08/20 16:36:48;;;;;;;6.03;4.07;;;31.40;85.80;;;;;;4996105;28;20178;-61
2023/08/20 16:39:14;;;;;;;3.90;3.60;;;31.40;86.20;;;;;;4996650;28;20919;-61
2023/08/20 16:41:40;;;;;;;4.97;4.47;;;31.30;86.60;;;;;;4996508;28;20432;-63
2023/08/20 16:44:05;;;;;;;3.97;3.57;;;31.30;86.30;;;;;;4995896;28;20172;-62
2023/08/20 16:46:31;;;;;;;4.37;3.97;;;31.20;86.10;;;;;;4996058;28;20681;-62
2023/08/20 16:48:57;;;;;;;4.30;4.00;;;31.20;86.00;;;;;;4996196;28;20172;-62
2023/08/20 16:51:22;;;;;;;3.67;3.47;;;31.20;86.00;;;;;;4995413;28;20175;-62